Terminal Aerodrome Forecast
Issued by NWS Norman, OK

Home | Current Version | Previous Version | Text Only | Print | Product List | Glossary On
Versions: 1 2 3 4 5 6 7 8 9 10 11 12 13 14
000
FTUS44 KOUN 022331
TAFOKC
TAF
KOKC 022331Z 0300/0324 35007KT P6SM SCT050
     FM030100 VRB04KT P6SM SKC
     FM031800 22006KT P6SM BKN250=

USA.gov is the U.S. government's official web portal to all federal, state and local government web resources and services.